Time;durP1;ratioP1;P1;durP2;ratioP2;P2;SDS_P1;SDS_P2;PMS_P1;PMS_P2;Temp;Humidity;BMP_temperature;BMP_pressure;BME280_temperature;BME280_humidity;BME280_pressure;Samples;Min_cycle;Max_cycle;Signal;HPM_P1;HPM_P2
2023/09/27 00:00:30;;;;;;;1.15;1.05;;;;;;;18.80;86.44;101106.19;5049488;28;20060;-85
2023/09/27 00:02:57;;;;;;;3.05;2.08;;;;;;;18.86;87.44;101119.31;5031586;28;20056;-84
2023/09/27 00:05:23;;;;;;;0.80;0.60;;;;;;;18.37;87.79;101039.78;5056265;28;20110;-84
2023/09/27 00:07:51;;;;;;;23.77;3.28;;;;;;;18.83;87.67;101107.91;5043355;28;20051;-84
2023/09/27 00:10:17;;;;;;;1.67;1.58;;;;;;;18.83;89.19;101127.38;5048267;28;20519;-83
2023/09/27 00:12:47;;;;;;;0.68;0.63;;;;;;;18.89;88.80;101129.88;5047866;28;20032;-84
2023/09/27 00:15:13;;;;;;;0.57;0.57;;;;;;;18.66;90.39;101089.59;5049185;28;20037;-85
2023/09/27 00:17:40;;;;;;;1.90;1.80;;;;;;;18.84;90.52;101117.59;5065833;28;20419;-85
2023/09/27 00:20:10;;;;;;;2.03;1.13;;;;;;;18.08;91.73;101001.44;5059851;28;20041;-85
2023/09/27 00:22:37;;;;;;;1.15;0.82;;;;;;;18.64;92.78;101096.78;5046911;28;20055;-85
2023/09/27 00:25:04;;;;;;;1.83;1.33;;;;;;;17.99;92.98;100978.59;5064822;28;20044;-84
2023/09/27 00:27:30;;;;;;;1.48;1.38;;;;;;;18.14;94.01;101011.91;5064266;28;20036;-84
2023/09/27 00:29:56;;;;;;;1.38;1.20;;;;;;;18.22;95.15;101017.94;5073321;28;20048;-85
2023/09/27 00:32:21;;;;;;;1.33;1.13;;;;;;;18.43;95.93;101061.78;5060267;28;20140;-85
2023/09/27 00:34:47;;;;;;;1.33;1.23;;;;;;;18.70;95.67;101107.25;5064618;28;20600;-85
2023/09/27 00:37:13;;;;;;;0.60;0.60;;;;;;;18.11;95.89;101014.66;5056234;28;20479;-86
2023/09/27 00:39:39;;;;;;;1.35;1.25;;;;;;;18.22;96.64;101027.72;5051030;28;20036;-83
2023/09/27 00:42:04;;;;;;;0.52;0.52;;;;;;;18.27;97.04;101039.09;5050940;28;20036;-85
2023/09/27 00:44:30;;;;;;;0.93;0.80;;;;;;;17.96;96.17;100985.75;5066650;28;20044;-86
2023/09/27 00:46:56;;;;;;;1.33;1.27;;;;;;;18.42;94.28;101067.97;5063151;28;20040;-86
2023/09/27 00:49:22;;;;;;;0.28;0.25;;;;;;;18.28;93.89;101038.19;5060879;28;20045;-85
2023/09/27 00:51:47;;;;;;;0.30;0.22;;;;;;;18.42;93.07;101075.94;5049374;28;20033;-85
2023/09/27 00:54:13;;;;;;;2.05;1.45;;;;;;;18.58;92.50;101096.91;5049200;28;20372;-85
2023/09/27 00:56:40;;;;;;;1.55;1.05;;;;;;;18.53;92.04;101092.53;5050170;28;20074;-85
2023/09/27 00:59:07;;;;;;;0.32;0.32;;;;;;;18.56;90.77;101081.84;5051053;28;20469;-86
2023/09/27 01:01:32;;;;;;;3.22;2.15;;;;;;;17.82;90.28;100980.75;5049816;28;20048;-85
2023/09/27 01:03:58;;;;;;;1.20;0.70;;;;;;;18.19;90.03;101041.03;5045289;28;20118;-85
2023/09/27 01:06:24;;;;;;;0.52;0.50;;;;;;;18.38;88.60;101061.00;5048222;28;20110;-85
2023/09/27 01:08:49;;;;;;;2.10;1.30;;;;;;;18.22;88.11;101035.69;5047073;28;20076;-86
2023/09/27 01:11:16;;;;;;;0.50;0.47;;;;;;;18.35;87.30;101059.28;5047499;28;20073;-85
2023/09/27 01:13:42;;;;;;;1.30;1.15;;;;;;;18.21;86.11;101025.94;5064716;28;20680;-85
2023/09/27 01:16:07;;;;;;;0.88;0.77;;;;;;;18.43;85.66;101071.53;5067987;28;20047;-85
2023/09/27 01:18:33;;;;;;;0.50;0.50;;;;;;;17.99;85.43;100989.22;5035051;28;20048;-84
2023/09/27 01:20:58;;;;;;;1.02;0.73;;;;;;;17.99;84.85;100981.25;5068020;28;20135;-85
2023/09/27 01:23:24;;;;;;;0.70;0.70;;;;;;;17.61;84.75;100929.81;5069370;28;20044;-85
2023/09/27 01:25:56;;;;;;;1.42;1.13;;;;;;;18.52;85.04;101077.53;5067203;28;20044;-84
2023/09/27 01:28:23;;;;;;;1.02;0.95;;;;;;;17.49;85.60;100916.81;5077526;28;20492;-85
2023/09/27 01:30:49;;;;;;;1.48;0.98;;;;;;;18.31;85.49;101052.28;5051741;28;20400;-84
2023/09/27 01:33:14;;;;;;;3.38;1.40;;;;;;;18.39;85.45;101070.72;5046605;28;20033;-84
2023/09/27 01:35:42;;;;;;;0.40;0.40;;;;;;;17.94;86.28;100996.44;5045864;28;20053;-85
2023/09/27 01:38:09;;;;;;;0.43;0.40;;;;;;;18.40;86.76;101084.88;5061805;28;20052;-84
2023/09/27 01:40:53;;;;;;;1.35;0.98;;;;;;;18.38;86.52;101055.69;5066700;28;20040;-84
2023/09/27 01:43:18;;;;;;;1.08;0.95;;;;;;;17.69;86.47;100948.25;5066295;28;20053;-84
2023/09/27 01:45:44;;;;;;;2.05;1.85;;;;;;;18.24;86.75;101048.03;5056135;28;20472;-86
2023/09/27 01:48:09;;;;;;;15.75;3.95;;;;;;;18.41;86.96;101084.84;5060394;28;20033;-85
2023/09/27 01:50:37;;;;;;;0.85;0.60;;;;;;;18.21;86.72;101036.56;5056120;28;20052;-85
2023/09/27 01:53:04;;;;;;;1.05;0.95;;;;;;;18.23;87.19;101058.66;5047093;28;20152;-85
2023/09/27 01:55:31;;;;;;;1.73;1.58;;;;;;;17.75;87.26;100974.66;5037321;28;20056;-84
2023/09/27 01:57:56;;;;;;;0.32;0.32;;;;;;;17.79;86.81;100978.97;5069769;28;20621;-85
2023/09/27 02:00:24;;;;;;;2.63;0.85;;;;;;;18.35;86.69;101077.00;5057381;28;20086;-85
2023/09/27 02:02:55;;;;;;;2.08;1.95;;;;;;;18.11;86.87;101030.59;5050148;28;20049;-83
2023/09/27 02:05:21;;;;;;;1.35;1.08;;;;;;;17.89;86.60;100982.38;5051113;28;20045;-86
2023/09/27 02:07:46;;;;;;;0.60;0.60;;;;;;;18.26;87.75;101062.16;5048607;28;20052;-83
2023/09/27 02:10:12;;;;;;;1.20;1.10;;;;;;;17.75;87.78;100964.06;5068989;28;20068;-84
2023/09/27 02:12:39;;;;;;;1.77;0.75;;;;;;;18.14;88.54;101033.16;5069313;28;20107;-85
2023/09/27 02:15:09;;;;;;;0.30;0.30;;;;;;;18.20;88.56;101030.38;5051358;28;20047;-84
2023/09/27 02:17:36;;;;;;;1.00;0.77;;;;;;;18.31;89.46;101052.28;5068266;28;20056;-85
2023/09/27 02:20:06;;;;;;;1.67;1.50;;;;;;;17.79;89.21;100952.44;5068147;28;20037;-85
2023/09/27 02:22:32;;;;;;;0.95;0.40;;;;;;;17.93;89.81;100974.31;5059566;28;20090;-83
2023/09/27 02:24:57;;;;;;;0.73;0.70;;;;;;;17.74;90.45;100949.00;5039165;28;20667;-84
2023/09/27 02:27:23;;;;;;;1.52;1.17;;;;;;;17.83;90.69;100951.50;5038389;28;20053;-84
2023/09/27 02:29:49;;;;;;;0.75;0.75;;;;;;;17.62;92.14;100934.22;5088077;28;20055;-84
2023/09/27 02:32:14;;;;;;;2.58;2.28;;;;;;;18.25;92.02;101036.47;5073581;28;20044;-86
2023/09/27 02:34:42;;;;;;;0.20;0.20;;;;;;;18.20;92.26;101035.72;5070955;28;20471;-85
2023/09/27 02:37:07;;;;;;;3.25;2.13;;;;;;;17.82;92.39;100956.88;5068739;28;20064;-85
2023/09/27 02:39:33;;;;;;;1.35;1.25;;;;;;;17.67;93.15;100950.91;5078665;28;20024;-84
2023/09/27 02:41:59;;;;;;;1.05;1.00;;;;;;;18.18;92.23;101012.75;5064163;28;20036;-84
2023/09/27 02:44:25;;;;;;;2.08;1.17;;;;;;;18.49;91.71;101066.06;5066809;28;20104;-82
2023/09/27 02:46:52;;;;;;;1.83;1.20;;;;;;;16.97;91.48;100828.53;5059400;28;20489;-84
2023/09/27 02:49:19;;;;;;;0.93;0.85;;;;;;;18.52;91.46;101087.28;5051390;28;20124;-84
2023/09/27 02:51:47;;;;;;;0.63;0.63;;;;;;;18.12;92.84;101035.88;5049156;28;20039;-85
2023/09/27 02:54:14;;;;;;;0.98;0.77;;;;;;;18.33;92.56;101041.59;5049573;28;20041;-85
2023/09/27 02:56:40;;;;;;;1.63;1.13;;;;;;;17.65;93.31;100943.88;5054159;28;20041;-84
2023/09/27 02:59:06;;;;;;;1.20;0.98;;;;;;;17.80;93.23;100975.44;5031321;28;20045;-85
2023/09/27 03:01:32;;;;;;;3.83;1.38;;;;;;;18.25;93.94;101059.50;5049615;28;20128;-84
2023/09/27 03:03:58;;;;;;;2.30;2.05;;;;;;;16.63;93.23;100788.53;5030662;28;20418;-85
2023/09/27 03:06:23;;;;;;;0.47;0.28;;;;;;;18.24;93.52;101055.09;5051438;28;20048;-85
2023/09/27 03:08:50;;;;;;;1.05;0.70;;;;;;;17.97;92.77;100992.81;5068274;28;20076;-86
2023/09/27 03:11:17;;;;;;;1.55;0.73;;;;;;;18.14;90.73;101017.22;5050667;28;20053;-84
2023/09/27 03:13:43;;;;;;;0.75;0.73;;;;;;;17.86;90.99;100975.34;5066215;28;20056;-83
2023/09/27 03:16:10;;;;;;;0.65;0.55;;;;;;;18.04;89.66;100994.44;5067549;28;20048;-84
2023/09/27 03:18:36;;;;;;;2.05;0.80;;;;;;;18.39;88.90;101054.78;5068460;28;20128;-86
2023/09/27 03:21:02;;;;;;;1.58;1.48;;;;;;;17.87;87.68;100947.88;5054359;28;20045;-85
2023/09/27 03:23:28;;;;;;;1.08;0.95;;;;;;;18.50;87.03;101068.69;5047032;28;20140;-86
2023/09/27 03:25:56;;;;;;;1.75;1.35;;;;;;;18.14;84.76;100978.28;5048030;28;20041;-85
2023/09/27 03:28:22;;;;;;;4.45;1.90;;;;;;;18.65;85.36;101079.91;5053462;28;20032;-84
2023/09/27 03:30:48;;;;;;;0.75;0.68;;;;;;;18.55;83.98;101069.47;5074149;28;20477;-85
2023/09/27 03:33:14;;;;;;;1.98;1.30;;;;;;;18.30;81.75;100997.38;5052645;28;20035;-86
2023/09/27 03:35:39;;;;;;;8.18;2.45;;;;;;;18.67;80.95;101043.53;5058590;28;20128;-84
2023/09/27 03:38:05;;;;;;;0.80;0.63;;;;;;;18.72;80.44;101063.75;5049280;28;20048;-85
2023/09/27 03:40:31;;;;;;;0.30;0.30;;;;;;;18.65;79.55;101035.56;5048146;28;20049;-84
2023/09/27 03:42:57;;;;;;;0.88;0.73;;;;;;;18.81;79.48;101059.19;5048204;28;20139;-84
2023/09/27 03:45:22;;;;;;;1.48;1.38;;;;;;;18.93;77.84;101069.53;5046527;28;20526;-85
2023/09/27 03:47:48;;;;;;;1.75;1.65;;;;;;;18.41;77.83;100983.88;5039727;28;20055;-85
2023/09/27 03:50:14;;;;;;;0.75;0.75;;;;;;;18.62;77.19;101029.47;5053168;28;20466;-84
2023/09/27 03:52:40;;;;;;;1.35;0.90;;;;;;;18.62;75.84;101003.75;5047901;28;20500;-85
2023/09/27 03:55:09;;;;;;;1.40;1.30;;;;;;;18.89;75.59;101049.22;5053795;28;20037;-84
2023/09/27 03:57:35;;;;;;;1.58;1.45;;;;;;;18.54;75.23;100990.66;5059311;28;20052;-86
2023/09/27 04:00:06;;;;;;;0.85;0.73;;;;;;;18.42;75.77;100982.94;5041246;28;20063;-85
2023/09/27 04:02:32;;;;;;;0.77;0.77;;;;;;;19.03;76.28;101094.09;5067431;28;20411;-85
2023/09/27 04:04:58;;;;;;;1.73;1.27;;;;;;;18.92;76.64;101081.94;5055300;28;20158;-85
2023/09/27 04:07:24;;;;;;;2.92;1.08;;;;;;;18.38;76.59;100994.56;5048536;28;20048;-84
2023/09/27 04:09:49;;;;;;;0.85;0.73;;;;;;;18.68;77.07;101050.56;5060831;28;20066;-85
2023/09/27 04:12:15;;;;;;;1.00;0.68;;;;;;;18.16;77.44;100975.56;5079178;28;20028;-85
2023/09/27 04:14:40;;;;;;;0.55;0.52;;;;;;;18.77;77.52;101084.97;5050651;28;20041;-85
2023/09/27 04:17:06;;;;;;;1.70;1.50;;;;;;;18.70;77.64;101068.22;5067665;28;20043;-86
2023/09/27 04:19:31;;;;;;;1.42;1.05;;;;;;;18.74;76.71;101075.25;5067180;28;20048;-85
2023/09/27 04:21:57;;;;;;;1.67;1.55;;;;;;;18.50;77.31;101044.78;5067976;28;20079;-84
2023/09/27 04:24:23;;;;;;;0.82;0.82;;;;;;;18.23;76.99;101003.75;5068121;28;20033;-84
2023/09/27 04:26:49;;;;;;;2.40;2.20;;;;;;;18.62;77.81;101077.31;5069162;28;20074;-84
2023/09/27 04:29:15;;;;;;;2.15;1.95;;;;;;;18.77;77.44;101100.91;5084752;28;20087;-84
2023/09/27 04:31:40;;;;;;;2.58;1.58;;;;;;;18.75;78.46;101100.94;5067638;28;20036;-84
2023/09/27 04:34:06;;;;;;;1.85;1.75;;;;;;;18.10;79.56;101004.94;5062655;28;20198;-85
2023/09/27 04:36:32;;;;;;;1.10;1.00;;;;;;;18.27;80.06;101021.38;5050013;28;20064;-84
2023/09/27 04:38:57;;;;;;;1.10;0.98;;;;;;;18.64;80.97;101097.63;5067039;28;20078;-85
2023/09/27 04:41:23;;;;;;;1.45;1.23;;;;;;;18.42;80.87;101054.69;5048058;28;20126;-84
2023/09/27 04:43:49;;;;;;;2.60;2.05;;;;;;;18.53;80.89;101079.25;5067986;28;20052;-85
2023/09/27 04:46:16;;;;;;;2.25;1.52;;;;;;;17.93;80.23;100966.34;5062140;28;20047;-85
2023/09/27 04:48:44;;;;;;;1.10;1.00;;;;;;;18.72;81.04;101108.97;5056527;28;20033;-85
2023/09/27 04:51:09;;;;;;;0.73;0.73;;;;;;;18.24;80.43;101018.78;5030655;28;20044;-85
2023/09/27 04:53:37;;;;;;;1.63;1.45;;;;;;;18.28;80.10;101028.44;5048908;28;20049;-85
2023/09/27 04:56:11;;;;;;;2.22;1.17;;;;;;;18.64;80.28;101088.78;5032806;28;20045;-84
2023/09/27 04:58:41;;;;;;;1.95;1.58;;;;;;;18.31;79.12;101023.06;5069790;28;20040;-84
2023/09/27 05:01:07;;;;;;;0.50;0.50;;;;;;;18.20;78.56;101006.47;5073665;28;20496;-86
2023/09/27 05:03:32;;;;;;;1.25;1.08;;;;;;;18.75;77.94;101073.44;5056170;28;20063;-85
2023/09/27 05:05:58;;;;;;;0.55;0.55;;;;;;;18.75;78.91;101079.66;5062610;28;20048;-85
2023/09/27 05:08:26;;;;;;;2.10;1.52;;;;;;;18.26;78.51;101003.69;5066930;28;20055;-86
2023/09/27 05:10:52;;;;;;;0.55;0.52;;;;;;;18.97;77.22;101119.94;5067603;28;20048;-85
2023/09/27 05:13:21;;;;;;;1.48;1.20;;;;;;;18.81;76.63;101076.00;5066553;28;20110;-85
2023/09/27 05:15:49;;;;;;;0.65;0.52;;;;;;;18.95;75.74;101088.97;5065790;28;20047;-85
2023/09/27 05:18:15;;;;;;;0.95;0.88;;;;;;;19.02;75.49;101085.25;5047441;28;20068;-85
2023/09/27 05:20:40;;;;;;;4.75;1.30;;;;;;;19.06;74.95;101081.63;5045956;28;20075;-84
2023/09/27 05:23:05;;;;;;;4.43;2.03;;;;;;;18.74;74.70;101014.09;5046857;28;20098;-86
2023/09/27 05:25:31;;;;;;;1.23;0.73;;;;;;;19.23;73.37;101091.84;5045858;28;20655;-86
2023/09/27 05:27:57;;;;;;;1.83;1.52;;;;;;;18.83;74.05;101015.69;5043584;28;20047;-86
2023/09/27 05:30:23;;;;;;;1.55;1.00;;;;;;;19.46;73.83;101109.03;5061425;28;20095;-86
2023/09/27 05:32:48;;;;;;;1.60;1.23;;;;;;;19.33;72.78;101084.50;5048861;28;20083;-86
2023/09/27 05:35:20;;;;;;;1.42;0.98;;;;;;;19.44;72.78;101101.06;5049990;28;20045;-85
2023/09/27 05:37:46;;;;;;;2.30;1.73;;;;;;;19.65;71.80;101112.94;5062208;28;20055;-85
2023/09/27 05:40:12;;;;;;;2.97;2.67;;;;;;;19.57;72.22;101105.16;5058978;28;20040;-84
2023/09/27 05:42:39;;;;;;;2.65;2.08;;;;;;;19.70;71.46;101111.06;5052640;28;20037;-85
2023/09/27 05:45:05;;;;;;;0.82;0.80;;;;;;;19.31;71.86;101020.66;5031487;28;20370;-84
2023/09/27 05:47:31;;;;;;;0.52;0.45;;;;;;;19.50;70.63;101039.69;5058008;28;20445;-85
2023/09/27 05:49:57;;;;;;;0.60;0.60;;;;;;;20.02;70.92;101120.84;5047378;28;20083;-86
2023/09/27 05:52:22;;;;;;;1.75;1.05;;;;;;;19.75;70.29;101052.34;5039563;28;20136;-86
2023/09/27 05:54:51;;;;;;;0.55;0.52;;;;;;;20.23;69.35;101121.16;5068657;28;20111;-84
2023/09/27 05:57:17;;;;;;;0.47;0.30;;;;;;;20.37;68.58;101137.63;5069482;28;20048;-85
2023/09/27 05:59:44;;;;;;;1.73;1.63;;;;;;;20.19;68.22;101092.84;5035972;28;20576;-86
2023/09/27 06:02:16;;;;;;;1.90;1.55;;;;;;;19.91;67.78;101023.50;5064512;28;20060;-86
2023/09/27 06:04:48;;;;;;;2.85;2.50;;;;;;;20.60;67.33;101122.75;5070955;28;20045;-85
2023/09/27 06:07:15;;;;;;;2.20;0.88;;;;;;;19.92;66.90;101015.44;5070176;28;20131;-85
2023/09/27 06:09:41;;;;;;;0.82;0.80;;;;;;;20.77;66.63;101148.94;5070673;28;20029;-85
2023/09/27 06:12:10;;;;;;;1.65;1.48;;;;;;;19.42;66.94;100913.91;5050357;28;20032;-84
2023/09/27 06:14:36;;;;;;;0.30;0.30;;;;;;;19.65;67.27;100955.84;5054883;28;20155;-86
2023/09/27 06:17:02;;;;;;;1.33;1.23;;;;;;;20.91;67.69;101132.47;5049497;28;20132;-85
2023/09/27 06:19:30;;;;;;;0.95;0.75;;;;;;;20.85;68.32;101123.75;5049652;28;20071;-85
2023/09/27 06:21:57;;;;;;;0.80;0.80;;;;;;;20.97;68.19;101116.28;5049389;28;20464;-86
2023/09/27 06:24:26;;;;;;;0.55;0.50;;;;;;;20.38;67.94;101006.09;5050314;28;20163;-85
2023/09/27 06:26:52;;;;;;;0.68;0.50;;;;;;;20.44;67.85;101021.91;5049058;28;20775;-85
2023/09/27 06:29:19;;;;;;;1.38;0.98;;;;;;;20.75;66.99;101062.75;5052813;28;20084;-85
2023/09/27 06:31:49;;;;;;;6.85;2.78;;;;;;;20.75;67.33;101047.63;5068500;28;20052;-85
2023/09/27 06:34:16;;;;;;;0.52;0.50;;;;;;;20.58;67.58;101010.84;5069764;28;20097;-85
2023/09/27 06:36:42;;;;;;;0.45;0.38;;;;;;;21.21;67.19;101102.16;5051756;28;20044;-86
2023/09/27 06:39:19;;;;;;;3.78;1.92;;;;;;;20.99;67.33;101058.41;5052414;28;20071;-87
2023/09/27 06:41:45;;;;;;;2.47;2.13;;;;;;;21.08;67.67;101060.78;5047014;28;20075;-85
2023/09/27 06:44:12;;;;;;;0.98;0.95;;;;;;;21.10;67.38;101040.25;5050487;28;20041;-85
2023/09/27 06:46:38;;;;;;;1.98;1.88;;;;;;;21.24;66.85;101064.69;5057543;28;20045;-84
2023/09/27 06:49:03;;;;;;;1.63;1.52;;;;;;;21.32;66.76;101055.53;5080727;28;20112;-85
2023/09/27 06:51:30;;;;;;;2.55;2.08;;;;;;;21.55;66.92;101073.47;5070278;28;20521;-86
2023/09/27 06:53:55;;;;;;;1.20;1.10;;;;;;;21.64;65.85;101092.72;5068201;28;20070;-85
2023/09/27 06:56:21;;;;;;;1.42;1.33;;;;;;;21.58;64.23;101087.56;5052726;28;20556;-87
2023/09/27 06:58:48;;;;;;;2.15;1.23;;;;;;;21.78;63.55;101107.41;5067159;28;20048;-86
2023/09/27 07:01:15;;;;;;;1.05;0.93;;;;;;;21.63;63.89;101063.38;5069202;28;20053;-86
2023/09/27 07:03:41;;;;;;;2.00;1.80;;;;;;;21.83;63.09;101108.97;5050908;28;20075;-86
2023/09/27 07:06:06;;;;;;;1.80;1.52;;;;;;;21.93;63.12;101121.06;5070450;28;20028;-85
2023/09/27 07:08:33;;;;;;;0.47;0.40;;;;;;;22.10;62.63;101140.94;5065689;28;20132;-85
2023/09/27 07:11:09;;;;;;;3.00;1.10;;;;;;;22.20;62.22;101133.50;5048677;28;20045;-85
2023/09/27 07:13:37;;;;;;;1.33;1.23;;;;;;;22.21;61.65;101128.09;5031470;28;20041;-87
2023/09/27 07:16:18;;;;;;;1.92;1.80;;;;;;;22.31;61.05;101129.53;5047858;28;20069;-85
2023/09/27 07:18:44;;;;;;;1.92;1.83;;;;;;;21.79;60.65;101034.31;5048017;28;20040;-85
2023/09/27 07:21:10;;;;;;;1.02;0.73;;;;;;;21.93;59.88;101046.22;5049231;28;20032;-87
2023/09/27 07:23:35;;;;;;;0.77;0.77;;;;;;;21.95;58.98;101037.31;5047963;28;20053;-86
2023/09/27 07:26:04;;;;;;;7.15;3.00;;;;;;;21.80;58.73;101014.69;5049170;28;20194;-87
2023/09/27 07:28:31;;;;;;;1.05;0.95;;;;;;;22.46;58.41;101114.69;5076508;28;20044;-86
2023/09/27 07:30:57;;;;;;;2.35;2.20;;;;;;;22.04;57.67;101023.59;5072772;28;20044;-85
2023/09/27 07:33:24;;;;;;;1.08;0.80;;;;;;;22.49;57.56;101094.97;5070034;28;20024;-87
2023/09/27 07:35:52;;;;;;;1.98;1.02;;;;;;;22.94;56.72;101148.50;5070026;28;20076;-86
2023/09/27 07:38:17;;;;;;;3.70;2.90;;;;;;;22.41;56.31;101041.78;5036069;28;20110;-87
2023/09/27 07:40:47;;;;;;;0.98;0.93;;;;;;;22.46;56.40;101047.84;5050840;28;20040;-86
2023/09/27 07:43:14;;;;;;;1.50;1.40;;;;;;;22.59;55.95;101037.50;5048449;28;20539;-87
2023/09/27 07:45:44;;;;;;;1.05;0.95;;;;;;;22.79;54.89;101063.47;5048945;28;20037;-84
2023/09/27 07:48:10;;;;;;;6.97;2.58;;;;;;;23.20;54.12;101130.53;5069070;28;20032;-88
2023/09/27 07:50:38;;;;;;;0.65;0.52;;;;;;;23.34;54.25;101113.88;5060534;28;20037;-86
2023/09/27 07:53:06;;;;;;;6.03;3.28;;;;;;;23.64;53.31;101146.53;5055410;28;20156;-87
2023/09/27 07:55:32;;;;;;;1.80;1.52;;;;;;;23.62;53.83;101129.66;5068017;28;20045;-85
2023/09/27 07:57:58;;;;;;;3.80;2.33;;;;;;;23.73;53.22;101124.72;5049351;28;20041;-87
2023/09/27 08:00:31;;;;;;;4.88;2.15;;;;;;;23.34;52.08;101057.66;5068282;28;20508;-85
2023/09/27 08:03:03;;;;;;;2.40;2.20;;;;;;;23.51;52.22;101073.88;5067365;28;20581;-87
2023/09/27 08:05:28;;;;;;;4.75;0.75;;;;;;;23.65;51.51;101083.09;5040408;28;20041;-86
2023/09/27 08:07:54;;;;;;;1.65;1.00;;;;;;;23.89;51.33;101121.41;5046815;28;20053;-86
2023/09/27 08:10:22;;;;;;;1.60;1.50;;;;;;;24.09;51.10;101148.22;5047193;28;20045;-87
2023/09/27 08:12:48;;;;;;;2.10;1.55;;;;;;;23.88;49.99;101117.88;5046853;28;20086;-84
2023/09/27 08:15:13;;;;;;;1.60;1.38;;;;;;;24.03;49.71;101148.47;5048785;28;20025;-86
2023/09/27 08:17:39;;;;;;;2.72;1.20;;;;;;;23.57;49.73;101065.56;5029383;28;20084;-86
2023/09/27 08:20:09;;;;;;;1.83;1.70;;;;;;;23.69;49.98;101056.09;5046818;28;20037;-87
2023/09/27 08:22:39;;;;;;;0.65;0.65;;;;;;;24.33;49.10;101121.22;5028920;28;20418;-88
2023/09/27 08:25:08;;;;;;;0.40;0.30;;;;;;;24.34;49.33;101090.75;5047506;28;20431;-86
2023/09/27 08:27:34;;;;;;;1.20;1.10;;;;;;;24.34;48.68;101061.25;5051093;28;20248;-86
2023/09/27 08:30:00;;;;;;;0.60;0.60;;;;;;;24.42;48.22;101064.47;5068267;28;20048;-88
2023/09/27 08:32:26;;;;;;;4.15;2.78;;;;;;;24.20;48.07;101067.25;5069432;28;20064;-85
2023/09/27 08:34:51;;;;;;;0.80;0.80;;;;;;;24.79;48.08;101146.78;5046856;28;20041;-85
2023/09/27 08:37:17;;;;;;;1.13;1.02;;;;;;;24.60;48.42;101109.19;5048458;28;20128;-86
2023/09/27 08:39:43;;;;;;;2.25;2.05;;;;;;;24.63;48.22;101066.13;5047562;28;20037;-86
2023/09/27 08:42:09;;;;;;;0.20;0.20;;;;;;;24.81;47.59;101080.47;5051545;28;20388;-89
2023/09/27 08:44:36;;;;;;;1.45;1.35;;;;;;;25.22;47.87;101151.94;5067488;28;20040;-88
2023/09/27 08:47:01;;;;;;;2.33;2.20;;;;;;;24.70;47.76;101064.03;5060626;28;20419;-88
2023/09/27 08:49:27;;;;;;;4.45;2.30;;;;;;;24.10;47.71;101005.13;5051732;28;20074;-88
2023/09/27 08:51:53;;;;;;;0.10;0.10;;;;;;;25.09;48.16;101154.31;5048587;28;20111;-87
2023/09/27 08:54:21;;;;;;;1.48;1.38;;;;;;;24.80;47.81;101110.09;5064510;28;20403;-85
2023/09/27 08:56:49;;;;;;;0.45;0.40;;;;;;;24.79;47.33;101046.59;5040141;28;20044;-85
2023/09/27 08:59:15;;;;;;;0.77;0.60;;;;;;;25.31;47.29;101147.91;5068792;28;20040;-87
2023/09/27 09:01:43;;;;;;;2.35;1.25;;;;;;;24.76;47.36;101073.59;5059561;28;20059;-87
2023/09/27 09:04:12;;;;;;;3.28;3.00;;;;;;;25.09;47.43;101114.03;5031318;28;20048;-86
2023/09/27 09:06:42;;;;;;;0.65;0.57;;;;;;;23.78;47.10;100924.41;5054366;28;20484;-84
2023/09/27 09:09:11;;;;;;;17.02;2.10;;;;;;;24.71;47.57;101070.25;5055112;28;20092;-84
2023/09/27 09:11:47;;;;;;;1.05;0.65;;;;;;;25.01;47.36;101132.34;5055617;28;20067;-85
2023/09/27 09:14:22;;;;;;;2.75;1.63;;;;;;;24.57;47.12;100995.78;5055829;28;20519;-87
2023/09/27 09:16:52;;;;;;;1.17;1.08;;;;;;;24.88;47.17;101047.97;5053114;28;20049;-87
2023/09/27 09:19:31;;;;;;;0.70;0.70;;;;;;;25.59;47.93;101137.53;5054905;28;20114;-86
2023/09/27 09:22:03;;;;;;;2.60;0.80;;;;;;;25.17;46.80;101058.13;5056604;28;20037;-86
2023/09/27 09:24:29;;;;;;;0.90;0.63;;;;;;;25.35;46.66;101117.25;5063646;28;20467;-86
2023/09/27 09:27:15;;;;;;;5.65;2.30;;;;;;;25.27;47.08;101131.09;5074064;28;20052;-82
2023/09/27 09:29:44;;;;;;;0.80;0.55;;;;;;;25.52;47.17;101138.78;5070082;28;20139;-85
2023/09/27 09:32:10;;;;;;;2.13;1.08;;;;;;;25.31;46.93;101104.91;5056893;28;20049;-88
2023/09/27 09:34:48;;;;;;;1.05;0.98;;;;;;;25.28;47.11;101133.66;5032997;28;20154;-86
2023/09/27 09:37:21;;;;;;;2.30;2.05;;;;;;;25.49;47.56;101106.66;5050556;28;20436;-86
2023/09/27 09:39:50;;;;;;;2.00;1.80;;;;;;;25.83;46.48;101127.31;5047861;28;20399;-86
2023/09/27 09:42:48;;;;;;;0.75;0.73;;;;;;;25.66;45.95;101151.50;5072640;28;20033;-87
2023/09/27 09:45:13;;;;;;;0.45;0.30;;;;;;;25.13;46.21;101043.09;5029876;28;20045;-88
2023/09/27 09:47:41;;;;;;;0.82;0.82;;;;;;;25.81;45.55;101113.06;5069357;28;20048;-88
2023/09/27 09:50:16;;;;;;;0.90;0.80;;;;;;;25.50;44.98;101049.31;5068132;28;20045;-87
2023/09/27 09:53:04;;;;;;;0.22;0.22;;;;;;;25.61;45.03;101051.41;5057329;28;20063;-87
2023/09/27 09:55:30;;;;;;;0.65;0.55;;;;;;;25.70;44.92;101128.88;5058200;28;20047;-86
2023/09/27 09:58:26;;;;;;;1.20;1.10;;;;;;;24.85;45.37;101019.44;5066523;28;20057;-85
2023/09/27 10:00:53;;;;;;;0.20;0.20;;;;;;;25.92;45.50;101120.63;5042048;28;20087;-87
2023/09/27 10:03:30;;;;;;;1.05;1.00;;;;;;;25.20;44.58;100998.03;5032542;28;20121;-87
2023/09/27 10:05:56;;;;;;;1.08;0.98;;;;;;;25.57;44.55;101039.09;5031651;28;20049;-86
2023/09/27 10:08:23;;;;;;;2.08;1.88;;;;;;;25.86;44.36;101118.22;5049725;28;20045;-84
2023/09/27 10:10:48;;;;;;;0.68;0.68;;;;;;;25.26;44.06;101057.69;5049880;28;20052;-87
2023/09/27 10:13:15;;;;;;;4.13;1.30;;;;;;;25.52;44.03;101094.88;5049496;28;20068;-88
2023/09/27 10:15:42;;;;;;;0.80;0.52;;;;;;;25.12;44.19;101019.84;5049288;28;20063;-85
2023/09/27 10:18:23;;;;;;;3.78;1.70;;;;;;;25.90;44.54;101115.31;5050039;28;20458;-86
2023/09/27 10:21:00;;;;;;;0.55;0.55;;;;;;;26.20;43.71;101127.19;5052331;28;20057;-89
2023/09/27 10:23:26;;;;;;;0.90;0.88;;;;;;;26.28;43.62;101089.97;5049234;28;20505;-86
2023/09/27 10:25:51;;;;;;;4.53;2.25;;;;;;;25.99;42.92;101080.78;5050008;28;20037;-81
2023/09/27 10:28:17;;;;;;;0.43;0.43;;;;;;;26.27;42.76;101104.38;5072754;28;20090;-86
2023/09/27 10:30:45;;;;;;;0.80;0.80;;;;;;;26.67;43.22;101097.69;5075238;28;20079;-87
2023/09/27 10:33:17;;;;;;;0.32;0.32;;;;;;;26.14;41.99;101019.94;5050634;28;20467;-87
2023/09/27 10:35:45;;;;;;;1.05;0.68;;;;;;;26.81;42.00;101071.78;5068631;28;20080;-86
2023/09/27 10:38:11;;;;;;;1.17;1.08;;;;;;;26.46;41.71;101096.19;5068608;28;20065;-86
2023/09/27 10:40:47;;;;;;;0.75;0.73;;;;;;;26.43;41.44;101051.44;5057109;28;20128;-86
2023/09/27 10:43:35;;;;;;;0.80;0.60;;;;;;;26.93;41.63;101104.28;5062394;28;20052;-85
2023/09/27 10:46:04;;;;;;;1.77;1.67;;;;;;;26.77;40.99;101099.88;5064878;28;20090;-85
2023/09/27 10:48:42;;;;;;;2.20;1.75;;;;;;;26.86;40.95;101061.66;5052513;28;20025;-86
2023/09/27 10:51:10;;;;;;;0.38;0.35;;;;;;;26.64;41.00;101002.75;5049678;28;20045;-86
2023/09/27 10:53:36;;;;;;;0.52;0.52;;;;;;;26.59;40.92;100975.25;5056266;28;20041;-88
2023/09/27 10:56:02;;;;;;;1.50;1.40;;;;;;;27.04;40.83;101065.97;5048490;28;20079;-86
2023/09/27 10:58:27;;;;;;;0.82;0.60;;;;;;;26.21;41.25;100991.72;5048415;28;20049;-86
2023/09/27 11:01:04;;;;;;;0.73;0.73;;;;;;;26.70;41.74;101046.34;5048242;28;20033;-87
2023/09/27 11:03:30;;;;;;;1.63;1.35;;;;;;;27.15;41.39;101071.56;5048560;28;20468;-87
2023/09/27 11:06:09;;;;;;;1.00;1.00;;;;;;;27.14;40.89;101021.34;5048805;28;20045;-88
2023/09/27 11:08:35;;;;;;;2.08;1.08;;;;;;;26.86;40.39;101026.63;5031236;28;20048;-87
2023/09/27 11:11:01;;;;;;;0.40;0.40;;;;;;;26.47;39.99;101018.03;5030885;28;20041;-87
2023/09/27 11:13:29;;;;;;;0.47;0.47;;;;;;;26.86;40.08;101058.94;5048546;28;20075;-87
2023/09/27 11:16:07;;;;;;;0.55;0.40;;;;;;;26.77;39.68;101051.41;5029574;28;20331;-88
2023/09/27 11:18:56;;;;;;;0.68;0.68;;;;;;;26.37;39.62;100989.03;5049362;28;20064;-87
2023/09/27 11:21:24;;;;;;;0.30;0.25;;;;;;;26.74;39.60;101069.47;5047785;28;20080;-88
2023/09/27 11:24:03;;;;;;;1.23;1.13;;;;;;;26.59;39.44;100962.66;5048591;28;20043;-87
2023/09/27 11:26:33;;;;;;;0.57;0.57;;;;;;;27.29;39.05;101061.84;5047772;28;20108;-86